sensor_id;sensor_type;location;lat;lon;timestamp;P1;durP1;ratioP1;P2;durP2;ratioP2
25345;SDS011;13300;51.032;3.710;2023-02-21T00:00:41;54.05;;;23.70;;
25345;SDS011;13300;51.032;3.710;2023-02-21T00:03:27;48.65;;;23.17;;
25345;SDS011;13300;51.032;3.710;2023-02-21T00:06:11;45.50;;;21.52;;
25345;SDS011;13300;51.032;3.710;2023-02-21T00:08:56;51.20;;;22.80;;
25345;SDS011;13300;51.032;3.710;2023-02-21T00:11:43;44.35;;;22.38;;
25345;SDS011;13300;51.032;3.710;2023-02-21T00:14:28;48.22;;;22.27;;
25345;SDS011;13300;51.032;3.710;2023-02-21T00:17:12;48.97;;;23.23;;
25345;SDS011;13300;51.032;3.710;2023-02-21T00:19:57;46.35;;;22.63;;
25345;SDS011;13300;51.032;3.710;2023-02-21T00:22:41;50.08;;;23.38;;
25345;SDS011;13300;51.032;3.710;2023-02-21T00:25:25;51.25;;;24.75;;
25345;SDS011;13300;51.032;3.710;2023-02-21T00:28:12;51.20;;;23.80;;
25345;SDS011;13300;51.032;3.710;2023-02-21T00:31:07;53.38;;;22.45;;
25345;SDS011;13300;51.032;3.710;2023-02-21T00:33:55;57.15;;;24.10;;
25345;SDS011;13300;51.032;3.710;2023-02-21T00:36:42;60.03;;;25.27;;
25345;SDS011;13300;51.032;3.710;2023-02-21T00:39:34;60.53;;;25.60;;
25345;SDS011;13300;51.032;3.710;2023-02-21T00:42:18;63.75;;;25.00;;
25345;SDS011;13300;51.032;3.710;2023-02-21T00:45:04;58.65;;;26.30;;
25345;SDS011;13300;51.032;3.710;2023-02-21T00:47:49;61.67;;;25.27;;
25345;SDS011;13300;51.032;3.710;2023-02-21T00:50:33;58.63;;;25.17;;
25345;SDS011;13300;51.032;3.710;2023-02-21T00:53:17;62.15;;;25.42;;
25345;SDS011;13300;51.032;3.710;2023-02-21T00:56:02;55.85;;;24.10;;
25345;SDS011;13300;51.032;3.710;2023-02-21T00:58:46;57.33;;;26.00;;
25345;SDS011;13300;51.032;3.710;2023-02-21T01:01:31;60.47;;;24.80;;
25345;SDS011;13300;51.032;3.710;2023-02-21T01:04:15;61.78;;;25.17;;
25345;SDS011;13300;51.032;3.710;2023-02-21T01:07:00;60.25;;;24.65;;
25345;SDS011;13300;51.032;3.710;2023-02-21T01:09:44;59.88;;;25.33;;
25345;SDS011;13300;51.032;3.710;2023-02-21T01:12:29;60.00;;;24.73;;
25345;SDS011;13300;51.032;3.710;2023-02-21T01:15:14;61.58;;;26.20;;
25345;SDS011;13300;51.032;3.710;2023-02-21T01:17:58;69.70;;;27.02;;
25345;SDS011;13300;51.032;3.710;2023-02-21T01:20:43;68.05;;;26.65;;
25345;SDS011;13300;51.032;3.710;2023-02-21T01:23:27;64.95;;;25.92;;
25345;SDS011;13300;51.032;3.710;2023-02-21T01:26:12;65.68;;;26.35;;
25345;SDS011;13300;51.032;3.710;2023-02-21T01:28:56;72.28;;;27.25;;
25345;SDS011;13300;51.032;3.710;2023-02-21T01:31:40;63.90;;;25.95;;
25345;SDS011;13300;51.032;3.710;2023-02-21T01:34:25;74.93;;;28.33;;
25345;SDS011;13300;51.032;3.710;2023-02-21T01:37:10;70.50;;;28.45;;
25345;SDS011;13300;51.032;3.710;2023-02-21T01:39:54;68.35;;;26.40;;
25345;SDS011;13300;51.032;3.710;2023-02-21T01:42:39;74.57;;;28.13;;
25345;SDS011;13300;51.032;3.710;2023-02-21T01:48:17;73.85;;;26.85;;
25345;SDS011;13300;51.032;3.710;2023-02-21T01:51:05;69.78;;;25.45;;
25345;SDS011;13300;51.032;3.710;2023-02-21T01:53:52;73.88;;;27.23;;
25345;SDS011;13300;51.032;3.710;2023-02-21T01:56:38;77.78;;;28.08;;
25345;SDS011;13300;51.032;3.710;2023-02-21T01:59:23;69.68;;;27.00;;
25345;SDS011;13300;51.032;3.710;2023-02-21T02:08:30;75.05;;;26.38;;
25345;SDS011;13300;51.032;3.710;2023-02-21T02:40:15;75.50;;;25.60;;
25345;SDS011;13300;51.032;3.710;2023-02-21T02:45:36;75.88;;;25.10;;
25345;SDS011;13300;51.032;3.710;2023-02-21T02:48:29;72.53;;;24.48;;
25345;SDS011;13300;51.032;3.710;2023-02-21T02:51:07;71.72;;;24.67;;
25345;SDS011;13300;51.032;3.710;2023-02-21T02:53:36;68.25;;;23.50;;
25345;SDS011;13300;51.032;3.710;2023-02-21T02:56:03;73.57;;;23.92;;
25345;SDS011;13300;51.032;3.710;2023-02-21T02:58:33;69.95;;;23.63;;
25345;SDS011;13300;51.032;3.710;2023-02-21T03:15:44;67.13;;;22.58;;
25345;SDS011;13300;51.032;3.710;2023-02-21T03:18:20;67.00;;;22.05;;
25345;SDS011;13300;51.032;3.710;2023-02-21T03:20:58;76.28;;;23.52;;
25345;SDS011;13300;51.032;3.710;2023-02-21T03:23:49;72.82;;;23.17;;
25345;SDS011;13300;51.032;3.710;2023-02-21T03:26:18;79.93;;;23.83;;
25345;SDS011;13300;51.032;3.710;2023-02-21T03:28:44;87.07;;;25.60;;
25345;SDS011;13300;51.032;3.710;2023-02-21T03:31:12;73.47;;;22.90;;
25345;SDS011;13300;51.032;3.710;2023-02-21T03:33:39;80.03;;;22.80;;
25345;SDS011;13300;51.032;3.710;2023-02-21T03:36:05;73.65;;;23.52;;
25345;SDS011;13300;51.032;3.710;2023-02-21T03:38:33;72.55;;;22.00;;
25345;SDS011;13300;51.032;3.710;2023-02-21T03:41:00;71.53;;;20.85;;
25345;SDS011;13300;51.032;3.710;2023-02-21T03:43:26;71.38;;;22.08;;
25345;SDS011;13300;51.032;3.710;2023-02-21T03:45:52;79.65;;;22.05;;
25345;SDS011;13300;51.032;3.710;2023-02-21T03:48:18;71.70;;;22.08;;
25345;SDS011;13300;51.032;3.710;2023-02-21T03:50:44;67.05;;;21.55;;
25345;SDS011;13300;51.032;3.710;2023-02-21T03:53:09;75.75;;;21.70;;
25345;SDS011;13300;51.032;3.710;2023-02-21T03:55:35;71.10;;;20.55;;
25345;SDS011;13300;51.032;3.710;2023-02-21T03:58:01;64.63;;;18.95;;
25345;SDS011;13300;51.032;3.710;2023-02-21T04:00:27;70.70;;;19.90;;
25345;SDS011;13300;51.032;3.710;2023-02-21T04:02:54;72.30;;;21.85;;
25345;SDS011;13300;51.032;3.710;2023-02-21T04:05:20;72.25;;;20.33;;
25345;SDS011;13300;51.032;3.710;2023-02-21T04:07:47;58.30;;;18.88;;
25345;SDS011;13300;51.032;3.710;2023-02-21T04:10:13;70.60;;;20.80;;
25345;SDS011;13300;51.032;3.710;2023-02-21T04:12:39;74.18;;;21.50;;
25345;SDS011;13300;51.032;3.710;2023-02-21T04:15:05;61.85;;;20.00;;
25345;SDS011;13300;51.032;3.710;2023-02-21T04:17:31;68.38;;;20.42;;
25345;SDS011;13300;51.032;3.710;2023-02-21T04:19:56;73.82;;;21.50;;
25345;SDS011;13300;51.032;3.710;2023-02-21T04:22:22;74.93;;;22.27;;
25345;SDS011;13300;51.032;3.710;2023-02-21T04:24:48;72.53;;;20.73;;
25345;SDS011;13300;51.032;3.710;2023-02-21T04:27:15;74.75;;;20.38;;
25345;SDS011;13300;51.032;3.710;2023-02-21T04:29:41;74.07;;;20.60;;
25345;SDS011;13300;51.032;3.710;2023-02-21T04:32:08;70.15;;;20.30;;
25345;SDS011;13300;51.032;3.710;2023-02-21T04:34:34;68.20;;;20.23;;
25345;SDS011;13300;51.032;3.710;2023-02-21T04:37:00;70.75;;;21.80;;
25345;SDS011;13300;51.032;3.710;2023-02-21T04:39:28;80.18;;;21.02;;
25345;SDS011;13300;51.032;3.710;2023-02-21T04:41:54;73.97;;;20.05;;
25345;SDS011;13300;51.032;3.710;2023-02-21T04:44:20;72.25;;;20.20;;
25345;SDS011;13300;51.032;3.710;2023-02-21T04:46:46;63.85;;;18.50;;
25345;SDS011;13300;51.032;3.710;2023-02-21T04:49:12;62.30;;;19.60;;
25345;SDS011;13300;51.032;3.710;2023-02-21T04:51:38;64.57;;;19.38;;
25345;SDS011;13300;51.032;3.710;2023-02-21T04:54:04;64.55;;;19.10;;
25345;SDS011;13300;51.032;3.710;2023-02-21T04:56:32;58.53;;;18.95;;
25345;SDS011;13300;51.032;3.710;2023-02-21T04:58:58;71.45;;;18.42;;
25345;SDS011;13300;51.032;3.710;2023-02-21T05:01:26;65.53;;;19.08;;
25345;SDS011;13300;51.032;3.710;2023-02-21T05:03:56;69.50;;;18.58;;
25345;SDS011;13300;51.032;3.710;2023-02-21T05:06:23;65.97;;;19.40;;
25345;SDS011;13300;51.032;3.710;2023-02-21T05:08:51;69.22;;;19.30;;
25345;SDS011;13300;51.032;3.710;2023-02-21T05:11:17;61.30;;;18.88;;
25345;SDS011;13300;51.032;3.710;2023-02-21T05:13:44;63.85;;;17.70;;
25345;SDS011;13300;51.032;3.710;2023-02-21T05:16:10;57.08;;;16.48;;
25345;SDS011;13300;51.032;3.710;2023-02-21T05:18:42;67.53;;;19.45;;
25345;SDS011;13300;51.032;3.710;2023-02-21T05:21:08;60.85;;;17.17;;
25345;SDS011;13300;51.032;3.710;2023-02-21T05:23:37;61.80;;;18.00;;
25345;SDS011;13300;51.032;3.710;2023-02-21T05:26:11;52.75;;;16.08;;
25345;SDS011;13300;51.032;3.710;2023-02-21T05:28:38;54.72;;;16.15;;
25345;SDS011;13300;51.032;3.710;2023-02-21T05:31:04;47.20;;;15.27;;
25345;SDS011;13300;51.032;3.710;2023-02-21T05:33:32;60.33;;;16.90;;
25345;SDS011;13300;51.032;3.710;2023-02-21T05:35:58;46.50;;;14.85;;
25345;SDS011;13300;51.032;3.710;2023-02-21T05:38:24;53.13;;;15.98;;
25345;SDS011;13300;51.032;3.710;2023-02-21T05:40:52;50.65;;;15.95;;
25345;SDS011;13300;51.032;3.710;2023-02-21T05:43:26;50.50;;;16.50;;
25345;SDS011;13300;51.032;3.710;2023-02-21T05:46:27;54.40;;;15.27;;
25345;SDS011;13300;51.032;3.710;2023-02-21T05:49:56;45.60;;;14.63;;
25345;SDS011;13300;51.032;3.710;2023-02-21T05:53:05;41.33;;;13.77;;
25345;SDS011;13300;51.032;3.710;2023-02-21T05:55:34;43.88;;;14.00;;
25345;SDS011;13300;51.032;3.710;2023-02-21T05:58:00;43.63;;;13.90;;
25345;SDS011;13300;51.032;3.710;2023-02-21T06:00:27;45.38;;;13.60;;
25345;SDS011;13300;51.032;3.710;2023-02-21T06:02:54;44.28;;;13.20;;
25345;SDS011;13300;51.032;3.710;2023-02-21T06:05:20;41.05;;;14.10;;
25345;SDS011;13300;51.032;3.710;2023-02-21T06:07:47;50.42;;;14.98;;
25345;SDS011;13300;51.032;3.710;2023-02-21T06:10:13;45.47;;;14.43;;
25345;SDS011;13300;51.032;3.710;2023-02-21T06:12:39;42.47;;;14.80;;
25345;SDS011;13300;51.032;3.710;2023-02-21T06:15:05;45.05;;;13.45;;
25345;SDS011;13300;51.032;3.710;2023-02-21T06:17:32;43.03;;;13.98;;
25345;SDS011;13300;51.032;3.710;2023-02-21T06:20:02;39.13;;;13.07;;
25345;SDS011;13300;51.032;3.710;2023-02-21T06:22:29;46.72;;;14.07;;
25345;SDS011;13300;51.032;3.710;2023-02-21T06:24:58;42.75;;;14.68;;
25345;SDS011;13300;51.032;3.710;2023-02-21T06:27:33;48.25;;;14.15;;
25345;SDS011;13300;51.032;3.710;2023-02-21T06:30:25;44.60;;;14.40;;
25345;SDS011;13300;51.032;3.710;2023-02-21T06:33:50;44.85;;;13.68;;
25345;SDS011;13300;51.032;3.710;2023-02-21T06:40:31;53.95;;;15.02;;
25345;SDS011;13300;51.032;3.710;2023-02-21T06:42:59;45.58;;;14.68;;
25345;SDS011;13300;51.032;3.710;2023-02-21T06:45:25;50.55;;;15.98;;
25345;SDS011;13300;51.032;3.710;2023-02-21T06:47:54;51.38;;;16.60;;
25345;SDS011;13300;51.032;3.710;2023-02-21T06:50:20;56.38;;;15.68;;
25345;SDS011;13300;51.032;3.710;2023-02-21T06:52:46;54.00;;;14.98;;
25345;SDS011;13300;51.032;3.710;2023-02-21T06:55:12;52.10;;;15.77;;
25345;SDS011;13300;51.032;3.710;2023-02-21T06:57:39;49.60;;;15.35;;
25345;SDS011;13300;51.032;3.710;2023-02-21T07:00:05;56.10;;;16.48;;
25345;SDS011;13300;51.032;3.710;2023-02-21T07:02:31;52.45;;;15.98;;
25345;SDS011;13300;51.032;3.710;2023-02-21T07:04:57;54.97;;;16.88;;
25345;SDS011;13300;51.032;3.710;2023-02-21T07:07:22;54.47;;;15.60;;
25345;SDS011;13300;51.032;3.710;2023-02-21T07:09:48;53.45;;;15.75;;
25345;SDS011;13300;51.032;3.710;2023-02-21T07:12:14;60.78;;;15.93;;
25345;SDS011;13300;51.032;3.710;2023-02-21T07:14:46;53.33;;;15.98;;
25345;SDS011;13300;51.032;3.710;2023-02-21T07:17:13;61.13;;;17.45;;
25345;SDS011;13300;51.032;3.710;2023-02-21T07:19:39;64.25;;;17.67;;
25345;SDS011;13300;51.032;3.710;2023-02-21T07:22:06;62.78;;;18.48;;
25345;SDS011;13300;51.032;3.710;2023-02-21T07:24:32;60.47;;;16.55;;
25345;SDS011;13300;51.032;3.710;2023-02-21T07:26:58;60.42;;;16.88;;
25345;SDS011;13300;51.032;3.710;2023-02-21T07:29:24;57.13;;;16.48;;
25345;SDS011;13300;51.032;3.710;2023-02-21T07:31:50;60.83;;;18.45;;
25345;SDS011;13300;51.032;3.710;2023-02-21T07:34:16;60.58;;;17.08;;
25345;SDS011;13300;51.032;3.710;2023-02-21T07:36:49;68.03;;;17.73;;
25345;SDS011;13300;51.032;3.710;2023-02-21T07:39:15;68.65;;;18.23;;
25345;SDS011;13300;51.032;3.710;2023-02-21T07:41:43;64.30;;;17.30;;
25345;SDS011;13300;51.032;3.710;2023-02-21T07:44:09;76.53;;;19.38;;
25345;SDS011;13300;51.032;3.710;2023-02-21T07:46:38;67.90;;;18.23;;
25345;SDS011;13300;51.032;3.710;2023-02-21T07:49:06;66.15;;;17.65;;
25345;SDS011;13300;51.032;3.710;2023-02-21T07:55:04;66.38;;;17.90;;
25345;SDS011;13300;51.032;3.710;2023-02-21T07:57:30;62.53;;;18.15;;
25345;SDS011;13300;51.032;3.710;2023-02-21T07:59:56;63.97;;;18.70;;
25345;SDS011;13300;51.032;3.710;2023-02-21T08:02:25;64.22;;;18.48;;
25345;SDS011;13300;51.032;3.710;2023-02-21T08:04:51;62.45;;;18.48;;
25345;SDS011;13300;51.032;3.710;2023-02-21T08:07:17;60.63;;;18.58;;
25345;SDS011;13300;51.032;3.710;2023-02-21T08:09:44;63.72;;;19.50;;
25345;SDS011;13300;51.032;3.710;2023-02-21T08:12:11;64.93;;;19.17;;
25345;SDS011;13300;51.032;3.710;2023-02-21T08:14:36;68.15;;;20.77;;
25345;SDS011;13300;51.032;3.710;2023-02-21T08:17:02;67.35;;;21.10;;
25345;SDS011;13300;51.032;3.710;2023-02-21T08:19:28;70.90;;;21.55;;
25345;SDS011;13300;51.032;3.710;2023-02-21T08:21:54;70.47;;;20.77;;
25345;SDS011;13300;51.032;3.710;2023-02-21T08:24:20;60.20;;;19.85;;
25345;SDS011;13300;51.032;3.710;2023-02-21T08:26:46;68.10;;;20.63;;
25345;SDS011;13300;51.032;3.710;2023-02-21T08:29:12;63.83;;;20.77;;
25345;SDS011;13300;51.032;3.710;2023-02-21T08:31:38;67.45;;;21.98;;
25345;SDS011;13300;51.032;3.710;2023-02-21T08:34:06;67.10;;;21.30;;
25345;SDS011;13300;51.032;3.710;2023-02-21T08:36:33;63.75;;;20.85;;
25345;SDS011;13300;51.032;3.710;2023-02-21T08:39:00;61.53;;;20.08;;
25345;SDS011;13300;51.032;3.710;2023-02-21T08:41:42;61.78;;;20.75;;
25345;SDS011;13300;51.032;3.710;2023-02-21T08:44:11;61.60;;;20.20;;
25345;SDS011;13300;51.032;3.710;2023-02-21T08:46:40;65.37;;;21.70;;
25345;SDS011;13300;51.032;3.710;2023-02-21T08:49:06;63.38;;;21.85;;
25345;SDS011;13300;51.032;3.710;2023-02-21T08:51:47;68.57;;;21.33;;
25345;SDS011;13300;51.032;3.710;2023-02-21T08:54:14;67.07;;;21.88;;
25345;SDS011;13300;51.032;3.710;2023-02-21T08:56:40;66.20;;;20.98;;
25345;SDS011;13300;51.032;3.710;2023-02-21T08:59:06;61.20;;;20.42;;
25345;SDS011;13300;51.032;3.710;2023-02-21T09:01:34;61.22;;;19.73;;
25345;SDS011;13300;51.032;3.710;2023-02-21T09:04:04;55.03;;;19.80;;
25345;SDS011;13300;51.032;3.710;2023-02-21T09:10:32;50.35;;;16.92;;
25345;SDS011;13300;51.032;3.710;2023-02-21T09:13:47;48.50;;;17.25;;
25345;SDS011;13300;51.032;3.710;2023-02-21T09:16:28;47.13;;;17.33;;
25345;SDS011;13300;51.032;3.710;2023-02-21T09:19:38;51.55;;;17.42;;
25345;SDS011;13300;51.032;3.710;2023-02-21T09:22:07;46.67;;;15.73;;
25345;SDS011;13300;51.032;3.710;2023-02-21T09:24:41;44.60;;;17.25;;
25345;SDS011;13300;51.032;3.710;2023-02-21T09:27:26;35.70;;;13.23;;
25345;SDS011;13300;51.032;3.710;2023-02-21T09:34:17;46.85;;;15.90;;
25345;SDS011;13300;51.032;3.710;2023-02-21T09:37:47;42.55;;;16.35;;
25345;SDS011;13300;51.032;3.710;2023-02-21T09:41:00;41.72;;;15.82;;
25345;SDS011;13300;51.032;3.710;2023-02-21T09:43:35;40.03;;;15.63;;
25345;SDS011;13300;51.032;3.710;2023-02-21T09:46:04;38.85;;;15.75;;
25345;SDS011;13300;51.032;3.710;2023-02-21T09:48:42;41.50;;;14.77;;
25345;SDS011;13300;51.032;3.710;2023-02-21T09:51:24;39.97;;;16.23;;
25345;SDS011;13300;51.032;3.710;2023-02-21T09:53:54;39.58;;;15.55;;
25345;SDS011;13300;51.032;3.710;2023-02-21T09:56:33;39.45;;;16.65;;
25345;SDS011;13300;51.032;3.710;2023-02-21T09:59:41;48.40;;;16.75;;
25345;SDS011;13300;51.032;3.710;2023-02-21T10:02:53;39.80;;;16.70;;
25345;SDS011;13300;51.032;3.710;2023-02-21T10:12:29;34.10;;;15.48;;
25345;SDS011;13300;51.032;3.710;2023-02-21T10:18:00;42.72;;;16.83;;
25345;SDS011;13300;51.032;3.710;2023-02-21T10:20:53;35.53;;;15.90;;
25345;SDS011;13300;51.032;3.710;2023-02-21T10:23:53;41.25;;;16.38;;
25345;SDS011;13300;51.032;3.710;2023-02-21T10:32:57;33.70;;;16.05;;
25345;SDS011;13300;51.032;3.710;2023-02-21T10:35:34;29.00;;;15.30;;
25345;SDS011;13300;51.032;3.710;2023-02-21T10:38:05;32.28;;;15.65;;
25345;SDS011;13300;51.032;3.710;2023-02-21T10:40:50;29.27;;;15.18;;
25345;SDS011;13300;51.032;3.710;2023-02-21T10:46:33;22.70;;;12.77;;
25345;SDS011;13300;51.032;3.710;2023-02-21T10:52:46;22.60;;;12.23;;
25345;SDS011;13300;51.032;3.710;2023-02-21T10:55:16;23.80;;;12.38;;
25345;SDS011;13300;51.032;3.710;2023-02-21T11:04:39;19.63;;;11.52;;
25345;SDS011;13300;51.032;3.710;2023-02-21T11:06:53;18.83;;;11.20;;
25345;SDS011;13300;51.032;3.710;2023-02-21T11:12:15;18.98;;;11.05;;
25345;SDS011;13300;51.032;3.710;2023-02-21T11:15:24;15.68;;;9.75;;
25345;SDS011;13300;51.032;3.710;2023-02-21T11:18:02;18.92;;;11.18;;
25345;SDS011;13300;51.032;3.710;2023-02-21T11:20:48;21.73;;;11.00;;
25345;SDS011;13300;51.032;3.710;2023-02-21T11:23:23;20.67;;;11.27;;
25345;SDS011;13300;51.032;3.710;2023-02-21T11:26:08;19.42;;;11.27;;
25345;SDS011;13300;51.032;3.710;2023-02-21T11:28:40;19.25;;;11.32;;
25345;SDS011;13300;51.032;3.710;2023-02-21T11:31:14;19.00;;;11.57;;
25345;SDS011;13300;51.032;3.710;2023-02-21T11:33:49;20.88;;;10.82;;
25345;SDS011;13300;51.032;3.710;2023-02-21T11:36:19;19.08;;;11.45;;
25345;SDS011;13300;51.032;3.710;2023-02-21T11:41:56;30.35;;;14.75;;
25345;SDS011;13300;51.032;3.710;2023-02-21T11:47:07;40.00;;;22.15;;
25345;SDS011;13300;51.032;3.710;2023-02-21T11:50:00;25.83;;;13.18;;
25345;SDS011;13300;51.032;3.710;2023-02-21T11:52:58;20.25;;;10.77;;
25345;SDS011;13300;51.032;3.710;2023-02-21T11:55:31;18.50;;;10.63;;
25345;SDS011;13300;51.032;3.710;2023-02-21T12:01:12;21.27;;;11.52;;
25345;SDS011;13300;51.032;3.710;2023-02-21T12:09:42;20.17;;;11.48;;
25345;SDS011;13300;51.032;3.710;2023-02-21T12:12:31;18.60;;;10.30;;
25345;SDS011;13300;51.032;3.710;2023-02-21T12:18:07;18.88;;;10.75;;
25345;SDS011;13300;51.032;3.710;2023-02-21T12:32:14;20.50;;;12.73;;
25345;SDS011;13300;51.032;3.710;2023-02-21T12:35:20;20.33;;;12.23;;
25345;SDS011;13300;51.032;3.710;2023-02-21T12:52:27;23.38;;;13.85;;
25345;SDS011;13300;51.032;3.710;2023-02-21T12:55:19;23.83;;;14.18;;
25345;SDS011;13300;51.032;3.710;2023-02-21T13:35:24;19.75;;;13.30;;
25345;SDS011;13300;51.032;3.710;2023-02-21T14:02:20;21.15;;;13.93;;
25345;SDS011;13300;51.032;3.710;2023-02-21T14:12:03;20.65;;;12.35;;
25345;SDS011;13300;51.032;3.710;2023-02-21T14:15:05;21.70;;;12.55;;
25345;SDS011;13300;51.032;3.710;2023-02-21T14:17:37;19.85;;;13.15;;
25345;SDS011;13300;51.032;3.710;2023-02-21T14:20:14;20.80;;;14.38;;
25345;SDS011;13300;51.032;3.710;2023-02-21T14:23:03;18.98;;;12.95;;
25345;SDS011;13300;51.032;3.710;2023-02-21T14:36:01;17.77;;;12.25;;
25345;SDS011;13300;51.032;3.710;2023-02-21T14:38:37;20.27;;;13.18;;
25345;SDS011;13300;51.032;3.710;2023-02-21T15:16:31;23.50;;;14.05;;
25345;SDS011;13300;51.032;3.710;2023-02-21T15:26:34;26.67;;;14.77;;
25345;SDS011;13300;51.032;3.710;2023-02-21T15:29:09;23.08;;;14.00;;
25345;SDS011;13300;51.032;3.710;2023-02-21T15:31:52;23.40;;;14.32;;
25345;SDS011;13300;51.032;3.710;2023-02-21T15:34:44;23.38;;;13.98;;
25345;SDS011;13300;51.032;3.710;2023-02-21T15:37:59;23.10;;;13.95;;
25345;SDS011;13300;51.032;3.710;2023-02-21T15:40:38;25.58;;;14.63;;
25345;SDS011;13300;51.032;3.710;2023-02-21T15:59:07;27.67;;;15.68;;
25345;SDS011;13300;51.032;3.710;2023-02-21T16:01:38;26.23;;;15.02;;
25345;SDS011;13300;51.032;3.710;2023-02-21T16:04:54;24.50;;;14.02;;
25345;SDS011;13300;51.032;3.710;2023-02-21T16:08:23;24.55;;;13.77;;
25345;SDS011;13300;51.032;3.710;2023-02-21T16:11:49;25.52;;;14.50;;
25345;SDS011;13300;51.032;3.710;2023-02-21T16:21:34;21.58;;;12.88;;
25345;SDS011;13300;51.032;3.710;2023-02-21T16:24:44;21.00;;;12.55;;
25345;SDS011;13300;51.032;3.710;2023-02-21T16:31:24;18.98;;;11.85;;
25345;SDS011;13300;51.032;3.710;2023-02-21T16:45:13;21.73;;;12.82;;
25345;SDS011;13300;51.032;3.710;2023-02-21T16:48:42;24.65;;;13.68;;
25345;SDS011;13300;51.032;3.710;2023-02-21T16:52:28;23.35;;;13.30;;
25345;SDS011;13300;51.032;3.710;2023-02-21T16:55:15;21.00;;;13.27;;
25345;SDS011;13300;51.032;3.710;2023-02-21T16:58:43;24.98;;;13.63;;
25345;SDS011;13300;51.032;3.710;2023-02-21T17:04:53;21.75;;;13.52;;
25345;SDS011;13300;51.032;3.710;2023-02-21T17:07:26;25.17;;;15.25;;
25345;SDS011;13300;51.032;3.710;2023-02-21T17:10:18;20.63;;;14.02;;
25345;SDS011;13300;51.032;3.710;2023-02-21T17:12:54;22.30;;;14.38;;
25345;SDS011;13300;51.032;3.710;2023-02-21T17:15:38;22.23;;;15.07;;
25345;SDS011;13300;51.032;3.710;2023-02-21T17:24:24;26.20;;;14.40;;
25345;SDS011;13300;51.032;3.710;2023-02-21T17:26:53;22.75;;;14.93;;
25345;SDS011;13300;51.032;3.710;2023-02-21T17:29:25;23.50;;;14.27;;
25345;SDS011;13300;51.032;3.710;2023-02-21T17:32:05;23.35;;;13.77;;
25345;SDS011;13300;51.032;3.710;2023-02-21T17:34:48;28.58;;;14.20;;
25345;SDS011;13300;51.032;3.710;2023-02-21T17:41:46;22.45;;;14.23;;
25345;SDS011;13300;51.032;3.710;2023-02-21T17:47:55;22.20;;;13.82;;
25345;SDS011;13300;51.032;3.710;2023-02-21T17:50:41;23.58;;;14.27;;
25345;SDS011;13300;51.032;3.710;2023-02-21T17:53:14;28.35;;;16.88;;
25345;SDS011;13300;51.032;3.710;2023-02-21T17:56:00;26.00;;;15.30;;
25345;SDS011;13300;51.032;3.710;2023-02-21T17:59:00;27.33;;;17.30;;
25345;SDS011;13300;51.032;3.710;2023-02-21T18:04:56;30.92;;;16.67;;
25345;SDS011;13300;51.032;3.710;2023-02-21T18:07:23;33.05;;;17.75;;
25345;SDS011;13300;51.032;3.710;2023-02-21T18:09:59;40.90;;;19.90;;
25345;SDS011;13300;51.032;3.710;2023-02-21T18:12:27;47.25;;;21.23;;
25345;SDS011;13300;51.032;3.710;2023-02-21T18:14:55;43.97;;;20.90;;
25345;SDS011;13300;51.032;3.710;2023-02-21T18:17:21;49.92;;;22.27;;
25345;SDS011;13300;51.032;3.710;2023-02-21T18:19:54;54.33;;;21.70;;
25345;SDS011;13300;51.032;3.710;2023-02-21T18:22:20;54.88;;;23.00;;
25345;SDS011;13300;51.032;3.710;2023-02-21T18:24:47;54.40;;;22.95;;
25345;SDS011;13300;51.032;3.710;2023-02-21T18:27:16;57.17;;;22.08;;
25345;SDS011;13300;51.032;3.710;2023-02-21T18:29:42;57.03;;;24.50;;
25345;SDS011;13300;51.032;3.710;2023-02-21T18:32:08;60.55;;;24.77;;
25345;SDS011;13300;51.032;3.710;2023-02-21T18:34:34;61.90;;;24.48;;
25345;SDS011;13300;51.032;3.710;2023-02-21T18:37:04;62.40;;;24.67;;
25345;SDS011;13300;51.032;3.710;2023-02-21T18:39:38;61.60;;;25.83;;
25345;SDS011;13300;51.032;3.710;2023-02-21T18:42:03;68.60;;;27.45;;
25345;SDS011;13300;51.032;3.710;2023-02-21T18:44:30;77.68;;;27.58;;
25345;SDS011;13300;51.032;3.710;2023-02-21T18:46:57;66.82;;;26.02;;
25345;SDS011;13300;51.032;3.710;2023-02-21T18:49:26;68.72;;;25.33;;
25345;SDS011;13300;51.032;3.710;2023-02-21T18:51:52;73.55;;;27.58;;
25345;SDS011;13300;51.032;3.710;2023-02-21T18:54:20;69.43;;;28.92;;
25345;SDS011;13300;51.032;3.710;2023-02-21T18:56:48;62.75;;;25.42;;
25345;SDS011;13300;51.032;3.710;2023-02-21T18:59:16;56.58;;;23.27;;
25345;SDS011;13300;51.032;3.710;2023-02-21T19:01:46;47.10;;;22.20;;
25345;SDS011;13300;51.032;3.710;2023-02-21T19:04:16;55.45;;;23.63;;
25345;SDS011;13300;51.032;3.710;2023-02-21T19:06:43;51.42;;;23.17;;
25345;SDS011;13300;51.032;3.710;2023-02-21T19:09:09;56.33;;;24.70;;
25345;SDS011;13300;51.032;3.710;2023-02-21T19:11:35;55.47;;;24.10;;
25345;SDS011;13300;51.032;3.710;2023-02-21T19:14:02;53.10;;;24.90;;
25345;SDS011;13300;51.032;3.710;2023-02-21T19:16:31;51.42;;;23.30;;
25345;SDS011;13300;51.032;3.710;2023-02-21T19:18:57;54.22;;;24.80;;
25345;SDS011;13300;51.032;3.710;2023-02-21T19:21:24;52.47;;;23.27;;
25345;SDS011;13300;51.032;3.710;2023-02-21T19:23:50;54.78;;;24.88;;
25345;SDS011;13300;51.032;3.710;2023-02-21T19:26:25;47.15;;;23.60;;
25345;SDS011;13300;51.032;3.710;2023-02-21T19:28:52;50.63;;;24.00;;
25345;SDS011;13300;51.032;3.710;2023-02-21T19:31:19;52.53;;;25.20;;
25345;SDS011;13300;51.032;3.710;2023-02-21T19:33:45;46.40;;;23.42;;
25345;SDS011;13300;51.032;3.710;2023-02-21T19:36:11;52.80;;;23.60;;
25345;SDS011;13300;51.032;3.710;2023-02-21T19:38:36;55.38;;;25.67;;
25345;SDS011;13300;51.032;3.710;2023-02-21T19:41:04;52.47;;;24.83;;
25345;SDS011;13300;51.032;3.710;2023-02-21T19:43:31;46.30;;;24.17;;
25345;SDS011;13300;51.032;3.710;2023-02-21T19:46:54;51.38;;;23.92;;
25345;SDS011;13300;51.032;3.710;2023-02-21T19:49:26;56.47;;;24.90;;
25345;SDS011;13300;51.032;3.710;2023-02-21T19:51:56;50.58;;;24.90;;
25345;SDS011;13300;51.032;3.710;2023-02-21T19:54:32;50.60;;;25.13;;
25345;SDS011;13300;51.032;3.710;2023-02-21T19:57:16;57.47;;;26.02;;
25345;SDS011;13300;51.032;3.710;2023-02-21T20:00:11;59.30;;;26.13;;
25345;SDS011;13300;51.032;3.710;2023-02-21T20:02:45;57.33;;;26.70;;
25345;SDS011;13300;51.032;3.710;2023-02-21T20:05:13;60.78;;;27.25;;
25345;SDS011;13300;51.032;3.710;2023-02-21T20:07:41;57.13;;;26.75;;
25345;SDS011;13300;51.032;3.710;2023-02-21T20:10:08;59.17;;;26.33;;
25345;SDS011;13300;51.032;3.710;2023-02-21T20:12:34;65.13;;;27.65;;
25345;SDS011;13300;51.032;3.710;2023-02-21T20:15:00;65.40;;;27.52;;
25345;SDS011;13300;51.032;3.710;2023-02-21T20:17:27;63.45;;;27.63;;
25345;SDS011;13300;51.032;3.710;2023-02-21T20:19:52;71.28;;;30.00;;
25345;SDS011;13300;51.032;3.710;2023-02-21T20:22:20;72.53;;;29.52;;
25345;SDS011;13300;51.032;3.710;2023-02-21T20:24:46;68.63;;;30.60;;
25345;SDS011;13300;51.032;3.710;2023-02-21T20:27:13;69.63;;;30.95;;
25345;SDS011;13300;51.032;3.710;2023-02-21T20:29:41;69.00;;;30.38;;
25345;SDS011;13300;51.032;3.710;2023-02-21T20:32:08;67.47;;;29.55;;
25345;SDS011;13300;51.032;3.710;2023-02-21T20:34:37;69.50;;;29.63;;
25345;SDS011;13300;51.032;3.710;2023-02-21T20:37:08;68.07;;;30.73;;
25345;SDS011;13300;51.032;3.710;2023-02-21T20:39:37;67.15;;;29.25;;